Valor — WDG9853 — position and weather

sailwx.info

Track history (hours):
 
Tides and Currents Weather Stations Pressure Air Temp Water Temp Dewpoint Dewpoint Depression Visibility Wind Speed Wind Dir Waves Ship Positions

Valor

Owner: Enterprise Marine Services, LLC, San Antonio, TX. More information available from US FCC via Universal Licensing System and Coast Guard Vessel Documentation Center.

Last reported at 2017-Sep-21 18:00 UTC. Time now 2017-Sep-21 18:05 UTC.
Position N 30°04' W 093°28'.

Length 29 m; draft 3.2 m.

Type: Towing. MMSI: 367591810.

Date/timePositionNaut miles runAvg speedWind from/ knotsBaromVisibWave heightAir tempDewpointWater temp
2017-Sep-21 18:00N 30°04' W 093°28'3 6.4
2017-Sep-21 17:31N 30°04' W 093°32'3 6.4
2017-Sep-21 17:00N 30°04' W 093°35'4 5.7
2017-Sep-21 16:21N 30°04' W 093°40'71 4.7
2017-Sep-21 01:05N 29°30' W 094°52'3 7.1
2017-Sep-21 00:43N 29°32' W 094°54'2 7.1
2017-Sep-21 00:31N 29°34' W 094°55'4 7.1
2017-Sep-21 00:01N 29°37' W 094°57'4 7.3
2017-Sep-20 23:31N 29°40' W 094°59'3 6.6
2017-Sep-20 22:59N 29°43' W 095°01'3 5.8
2017-Sep-20 22:28N 29°45' W 095°04'3 1.3
2017-Sep-20 20:15N 29°47' W 095°06'0 0.6
2017-Sep-20 19:53N 29°47' W 095°05'1 0.3
2017-Sep-20 17:37N 29°47' W 095°05'1 3.6
2017-Sep-20 17:12N 29°46' W 095°05'1 5.5
2017-Sep-20 17:00N 29°45' W 095°04'1 2.3
2017-Sep-20 16:24N 29°44' W 095°03'0 0.0
2017-Sep-20 15:57N 29°44' W 095°03'0 0.0
2017-Sep-20 14:48N 29°44' W 095°03'0 0.0
2017-Sep-20 13:40N 29°44' W 095°03'0 0.0
2017-Sep-20 12:32N 29°44' W 095°03'0 0.1
2017-Sep-20 12:28N 29°44' W 095°03'0 0.0
2017-Sep-20 11:23N 29°44' W 095°03'0 0.0
2017-Sep-20 10:15N 29°44' W 095°03'0 0.0
2017-Sep-20 06:36N 29°44' W 095°03'0 0.0
2017-Sep-20 06:20N 29°44' W 095°03'0 0.0
2017-Sep-19 21:12N 29°44' W 095°03'0 0.5
2017-Sep-19 20:59N 29°44' W 095°03'2 3.4
2017-Sep-19 20:30N 29°45' W 095°04'1 1.5
2017-Sep-19 19:55N 29°46' W 095°05'1 2.8
2017-Sep-19 19:30N 29°45' W 095°04'3 5.3
2017-Sep-19 18:55N 29°43' W 095°01'2 4.8
2017-Sep-19 18:31N 29°42' W 094°60'3 5.7
2017-Sep-19 18:00N 29°39' W 094°58'3 6.0
2017-Sep-19 17:30N 29°36' W 094°57'3 6.0
2017-Sep-19 17:01N 29°34' W 094°55'3 6.1
2017-Sep-19 16:30N 29°31' W 094°53'68 4.5
2017-Sep-19 01:19N 30°02' W 093°44'2 5.4
2017-Sep-19 00:59N 30°03' W 093°42'2 4.6
2017-Sep-19 00:30N 30°04' W 093°40'3 5.0
2017-Sep-19 00:00N 30°04' W 093°37'2 4.8
2017-Sep-18 23:30N 30°04' W 093°34'2 4.9
2017-Sep-18 23:01N 30°04' W 093°31'2 4.7
2017-Sep-18 22:31N 30°04' W 093°28'2 4.7
2017-Sep-18 22:01N 30°04' W 093°26'2 4.7
2017-Sep-18 21:31N 30°04' W 093°23'2 4.2
2017-Sep-18 21:01N 30°04' W 093°21'1 2.3
2017-Sep-18 20:31N 30°05' W 093°20'2 5.0
2017-Sep-18 20:01N 30°08' W 093°20'1 1.2
2017-Sep-18 19:31N 30°08' W 093°20'0 0.6
2017-Sep-18 19:01N 30°08' W 093°19'0 0.0
2017-Sep-18 18:31N 30°08' W 093°19'0 0.0
2017-Sep-18 18:01N 30°08' W 093°19'0 0.0
2017-Sep-18 17:31N 30°08' W 093°19'0 0.0
2017-Sep-18 17:01N 30°08' W 093°19'0 0.0
2017-Sep-18 16:31N 30°08' W 093°19'0 0.0
2017-Sep-18 16:01N 30°08' W 093°19'0 0.0
2017-Sep-18 15:31N 30°08' W 093°19'0 0.0
2017-Sep-18 15:00N 30°08' W 093°19'0 0.0
2017-Sep-18 14:31N 30°08' W 093°19'0 0.0
2017-Sep-18 14:01N 30°08' W 093°19'0 0.0
2017-Sep-18 13:30N 30°08' W 093°19'0 0.0
2017-Sep-18 13:01N 30°08' W 093°19'0 0.0
2017-Sep-18 12:30N 30°08' W 093°19'0 0.0
2017-Sep-18 12:01N 30°08' W 093°19'0 0.0
2017-Sep-18 11:31N 30°08' W 093°19'0 0.0
2017-Sep-18 11:00N 30°08' W 093°19'0 0.0
2017-Sep-18 10:31N 30°08' W 093°19'0 0.0
2017-Sep-18 10:01N 30°08' W 093°19'0 0.0
2017-Sep-18 09:31N 30°08' W 093°19'0 0.0
2017-Sep-18 09:01N 30°08' W 093°19'0 0.0
2017-Sep-18 08:31N 30°08' W 093°19'0 0.0
2017-Sep-18 08:01N 30°08' W 093°19'0 0.0
2017-Sep-18 07:31N 30°08' W 093°19'0 0.0
2017-Sep-18 07:00N 30°08' W 093°19'0 0.0
2017-Sep-18 06:30N 30°08' W 093°19'0 0.0
2017-Sep-18 06:01N 30°08' W 093°19'0 0.0
2017-Sep-18 05:31N 30°08' W 093°19'0 0.0
2017-Sep-18 05:01N 30°08' W 093°19'0 0.0
2017-Sep-18 04:30N 30°08' W 093°19'0 0.0
2017-Sep-18 04:01N 30°08' W 093°19'0 0.0
2017-Sep-18 03:31N 30°08' W 093°19'0 0.0
2017-Sep-18 03:00N 30°08' W 093°19'0 0.0
2017-Sep-18 02:30N 30°08' W 093°19'0 0.0
2017-Sep-18 02:00N 30°08' W 093°19'0 0.0
2017-Sep-18 01:31N 30°08' W 093°19'0 0.0
2017-Sep-18 01:01N 30°08' W 093°19'0 0.0
2017-Sep-18 00:31N 30°08' W 093°19'0 0.0
2017-Sep-18 00:01N 30°08' W 093°19'0 0.5
2017-Sep-17 23:31N 30°08' W 093°20'1 1.1
2017-Sep-17 23:01N 30°08' W 093°20'3 6.4
2017-Sep-17 22:31N 30°05' W 093°20'0 0.2
2017-Sep-17 22:01N 30°04' W 093°20'0 0.0
2017-Sep-17 21:31N 30°04' W 093°20'0 0.0
2017-Sep-17 21:01N 30°04' W 093°20'0 0.0
2017-Sep-17 20:31N 30°04' W 093°20'0 0.0
2017-Sep-17 20:01N 30°04' W 093°20'0 0.0
2017-Sep-17 19:31N 30°04' W 093°20'0 0.0
2017-Sep-17 19:01N 30°04' W 093°20'0 0.0
2017-Sep-17 18:31N 30°04' W 093°20'0 0.0
2017-Sep-17 18:00N 30°04' W 093°20'0 0.0
2017-Sep-17 17:31N 30°04' W 093°20'0 0.0
2017-Sep-17 17:00N 30°04' W 093°20'0 0.0
2017-Sep-17 16:31N 30°04' W 093°20'0 0.0
2017-Sep-17 16:01N 30°04' W 093°20'0 0.0
2017-Sep-17 15:31N 30°04' W 093°20'0 0.0
2017-Sep-17 15:01N 30°04' W 093°20'0 0.0
2017-Sep-17 14:31N 30°04' W 093°20'0 0.0
2017-Sep-17 14:00N 30°04' W 093°20'0 0.0
2017-Sep-17 13:30N 30°04' W 093°20'0 0.0
2017-Sep-17 13:01N 30°04' W 093°20'0 0.0
2017-Sep-17 12:31N 30°04' W 093°20'0 0.0
2017-Sep-17 12:01N 30°04' W 093°20'0 0.0
2017-Sep-17 11:31N 30°04' W 093°20'0 0.0
2017-Sep-17 11:00N 30°04' W 093°20'0 0.0
2017-Sep-17 10:31N 30°04' W 093°20'0 0.0
2017-Sep-17 10:01N 30°04' W 093°20'0 0.0
2017-Sep-17 09:30N 30°04' W 093°20'0 0.0
2017-Sep-17 09:01N 30°04' W 093°20'0 0.0
2017-Sep-17 08:31N 30°04' W 093°20'0 0.0
2017-Sep-17 08:01N 30°04' W 093°20'0 0.0
2017-Sep-17 07:31N 30°04' W 093°20'0 0.0
2017-Sep-17 07:01N 30°04' W 093°20'0 0.0
2017-Sep-17 06:31N 30°04' W 093°20'0 0.0
2017-Sep-17 06:01N 30°04' W 093°20'0 0.0
2017-Sep-17 05:31N 30°04' W 093°20'0 0.0
2017-Sep-17 04:56N 30°04' W 093°20'0 0.0
2017-Sep-17 04:31N 30°04' W 093°20'0 0.0
2017-Sep-17 04:00N 30°04' W 093°20'0 0.0
2017-Sep-17 03:31N 30°04' W 093°20'0 0.0
2017-Sep-17 03:00N 30°04' W 093°20'0 0.0
2017-Sep-17 02:31N 30°04' W 093°20'0 0.0
2017-Sep-17 02:01N 30°04' W 093°20'0 0.0
2017-Sep-17 01:31N 30°04' W 093°20'0 0.0
2017-Sep-17 01:01N 30°04' W 093°20'0 0.0
2017-Sep-17 00:30N 30°04' W 093°20'0 0.0
2017-Sep-17 00:00N 30°04' W 093°20'0 0.0
2017-Sep-16 23:31N 30°04' W 093°20'0 0.0
2017-Sep-16 23:01N 30°04' W 093°20'0 0.0
2017-Sep-16 22:31N 30°04' W 093°20'0 0.0
2017-Sep-16 22:01N 30°04' W 093°20'0 0.0
2017-Sep-16 21:31N 30°04' W 093°20'0 0.0
2017-Sep-16 21:00N 30°04' W 093°20'0 0.0
2017-Sep-16 20:31N 30°04' W 093°20'0 0.0
2017-Sep-16 20:00N 30°04' W 093°20'0 0.0
2017-Sep-16 19:30N 30°04' W 093°20'0 0.0
2017-Sep-16 19:01N 30°04' W 093°20'0 0.0
2017-Sep-16 18:30N 30°04' W 093°20'0 0.0
2017-Sep-16 18:01N 30°04' W 093°20'0 0.0
2017-Sep-16 17:31N 30°04' W 093°20'0 0.0
2017-Sep-16 17:01N 30°04' W 093°20'0 0.0
2017-Sep-16 16:31N 30°04' W 093°20'0 0.0
2017-Sep-16 16:01N 30°04' W 093°20'0 0.0
2017-Sep-16 15:30N 30°04' W 093°20'0 0.0
2017-Sep-16 15:00N 30°04' W 093°20'0 0.0
2017-Sep-16 14:31N 30°04' W 093°20'0 0.0
2017-Sep-16 14:01N 30°04' W 093°20'0 0.0
2017-Sep-16 13:31N 30°04' W 093°20'0 0.0
2017-Sep-16 13:01N 30°04' W 093°20'0 0.0
2017-Sep-16 12:30N 30°04' W 093°20'0 0.0
2017-Sep-16 12:01N 30°04' W 093°20'0 0.0
2017-Sep-16 11:31N 30°04' W 093°20'0 0.0
2017-Sep-16 11:01N 30°04' W 093°20'0 0.0
2017-Sep-16 10:31N 30°04' W 093°20'0 0.0
2017-Sep-16 10:00N 30°04' W 093°20'0 0.0
2017-Sep-16 09:31N 30°04' W 093°20'0 0.0
2017-Sep-16 09:01N 30°04' W 093°20'0 0.0
2017-Sep-16 08:31N 30°04' W 093°20'0 0.0
2017-Sep-16 08:00N 30°04' W 093°20'0 0.0
2017-Sep-16 07:31N 30°04' W 093°20'0 0.0
2017-Sep-16 07:01N 30°04' W 093°20'0 0.0
2017-Sep-16 06:31N 30°04' W 093°20'0 0.0
2017-Sep-16 06:01N 30°04' W 093°20'0 0.0
2017-Sep-16 05:31N 30°04' W 093°20'0 0.0
2017-Sep-16 05:01N 30°04' W 093°20'0 0.1
2017-Sep-16 04:31N 30°04' W 093°20'0 0.0
2017-Sep-16 04:01N 30°04' W 093°20'0 0.0
2017-Sep-16 03:31N 30°04' W 093°20'0 0.0
2017-Sep-16 03:01N 30°04' W 093°20'0 0.0
2017-Sep-16 02:30N 30°04' W 093°20'0 0.0
2017-Sep-16 02:00N 30°04' W 093°20'0 0.0
2017-Sep-16 01:28N 30°04' W 093°20'0 0.0
2017-Sep-16 01:01N 30°04' W 093°20'0 0.0
2017-Sep-16 00:30N 30°04' W 093°20'0 0.0
2017-Sep-16 00:01N 30°04' W 093°20'0 0.0
2017-Sep-15 23:31N 30°04' W 093°20'0 0.0
2017-Sep-15 23:00N 30°04' W 093°20'0 0.0
2017-Sep-15 22:31N 30°04' W 093°20'0 0.0
2017-Sep-15 22:01N 30°04' W 093°20'0 0.0
2017-Sep-15 21:31N 30°04' W 093°20'0 0.0
2017-Sep-15 21:01N 30°04' W 093°20'0 0.0
2017-Sep-15 20:31N 30°04' W 093°20'0 0.0
2017-Sep-15 20:00N 30°04' W 093°20'0 0.0
2017-Sep-15 19:31N 30°04' W 093°20'0 0.0
2017-Sep-15 19:01N 30°04' W 093°20'0 0.0
2017-Sep-15 18:31N 30°04' W 093°20'0 0.0
2017-Sep-15 18:01N 30°04' W 093°20'0 0.0
2017-Sep-15 17:31N 30°04' W 093°20'0 0.0
2017-Sep-15 17:01N 30°04' W 093°20'0 0.0
2017-Sep-15 16:31N 30°04' W 093°20'0 0.0
2017-Sep-15 16:01N 30°04' W 093°20'0 0.0
2017-Sep-15 15:31N 30°04' W 093°20'0 0.0
2017-Sep-15 15:00N 30°04' W 093°20'0 0.0
2017-Sep-15 14:31N 30°04' W 093°20'0 0.0
2017-Sep-15 14:01N 30°04' W 093°20'0 0.0
2017-Sep-15 13:31N 30°04' W 093°20'0 0.0
2017-Sep-15 13:00N 30°04' W 093°20'0 0.0
2017-Sep-15 12:31N 30°04' W 093°20'0 0.0
2017-Sep-15 12:01N 30°04' W 093°20'0 0.0
2017-Sep-15 11:31N 30°04' W 093°20'0 0.0
2017-Sep-15 11:00N 30°04' W 093°20'0 0.0
2017-Sep-15 10:31N 30°04' W 093°20'0 0.0
2017-Sep-15 10:01N 30°04' W 093°20'0 0.0
2017-Sep-15 09:31N 30°04' W 093°20'0 0.0
2017-Sep-15 09:01N 30°04' W 093°20'0 0.0
2017-Sep-15 08:31N 30°04' W 093°20'0 0.0
2017-Sep-15 08:01N 30°04' W 093°20'0 0.0
2017-Sep-15 07:30N 30°04' W 093°20'0 0.0
2017-Sep-15 07:00N 30°04' W 093°20'0 0.0
2017-Sep-15 06:31N 30°04' W 093°20'0 0.0
2017-Sep-15 06:00N 30°04' W 093°20'0 0.0
2017-Sep-15 05:31N 30°04' W 093°20'0 0.0
2017-Sep-15 05:01N 30°04' W 093°20'0 0.0
2017-Sep-15 04:31N 30°04' W 093°20'0 0.0
2017-Sep-15 04:01N 30°04' W 093°20'0 0.0
2017-Sep-15 03:31N 30°04' W 093°20'0 0.0
2017-Sep-15 03:00N 30°04' W 093°20'0 0.0
2017-Sep-15 02:30N 30°04' W 093°20'0 0.0
2017-Sep-15 02:01N 30°04' W 093°20'0 0.0
2017-Sep-15 01:30N 30°04' W 093°20'0 0.0
2017-Sep-15 01:01N 30°04' W 093°20'1 2.1
2017-Sep-15 00:31N 30°04' W 093°21'2 3.6
2017-Sep-15 00:00N 30°04' W 093°23'3 6.4
2017-Sep-14 23:30N 30°04' W 093°27'4 7.0
2017-Sep-14 23:01N 30°04' W 093°31'4 7.0
2017-Sep-14 22:30N 30°04' W 093°35'3 6.5
2017-Sep-14 22:00N 30°04' W 093°39'72 5.1
2017-Sep-14 07:59N 29°30' W 094°52'3 5.6
2017-Sep-14 07:30N 29°32' W 094°54'3 6.1
2017-Sep-14 07:00N 29°35' W 094°56'3 6.3
2017-Sep-14 06:31N 29°38' W 094°58'3 6.4
2017-Sep-14 06:01N 29°41' W 094°59'3 6.0
2017-Sep-14 05:31N 29°43' W 095°01'2 4.1
2017-Sep-14 05:00N 29°44' W 095°03'0 0.0
2017-Sep-14 04:30N 29°44' W 095°03'0 0.0
2017-Sep-14 03:58N 29°44' W 095°03'0 0.0
2017-Sep-14 03:30N 29°44' W 095°03'0 0.0
2017-Sep-14 03:00N 29°44' W 095°03'0 0.0
2017-Sep-13 04:44N 29°44' W 095°03'0 2.0
2017-Sep-13 04:30N 29°44' W 095°03'3 3.4
2017-Sep-13 03:43N 29°47' W 095°05'1 0.0
2017-Sep-12 13:51N 29°47' W 095°05'0 0.0
2017-Sep-12 13:29N 29°47' W 095°05'0 0.0
2017-Sep-12 13:00N 29°47' W 095°05'0 0.3
2017-Sep-12 12:30N 29°47' W 095°05'0 0.0
2017-Sep-12 01:31N 29°47' W 095°05'0 1.1
2017-Sep-12 01:24N 29°47' W 095°05'0 0.0
2017-Sep-11 21:26N 29°47' W 095°05'0 0.3
2017-Sep-11 20:58N 29°47' W 095°05'  
Track history (hours):
 
Tides and Currents Weather Stations Pressure Air Temp Water Temp Dewpoint Dewpoint Depression Visibility Wind Speed Wind Dir Waves Ship Positions

Valor

Owner: Enterprise Marine Services, LLC, San Antonio, TX. More information available from US FCC via Universal Licensing System and Coast Guard Vessel Documentation Center.

Last reported at 2017-Sep-21 18:00 UTC. Time now 2017-Sep-21 18:05 UTC.
Position N 30°04' W 093°28'.

Length 29 m; draft 3.2 m.

Type: Towing. MMSI: 367591810.

Date/timePositionNaut miles runAvg speedWind from/ knotsBaromVisibWave heightAir tempDewpointWater temp
2017-Sep-21 18:00N 30°04' W 093°28'3 6.4
2017-Sep-21 17:31N 30°04' W 093°32'3 6.4
2017-Sep-21 17:00N 30°04' W 093°35'4 5.7
2017-Sep-21 16:21N 30°04' W 093°40'71 4.7
2017-Sep-21 01:05N 29°30' W 094°52'3 7.1
2017-Sep-21 00:43N 29°32' W 094°54'2 7.1
2017-Sep-21 00:31N 29°34' W 094°55'4 7.1
2017-Sep-21 00:01N 29°37' W 094°57'4 7.3
2017-Sep-20 23:31N 29°40' W 094°59'3 6.6
2017-Sep-20 22:59N 29°43' W 095°01'3 5.8
2017-Sep-20 22:28N 29°45' W 095°04'3 1.3
2017-Sep-20 20:15N 29°47' W 095°06'0 0.6
2017-Sep-20 19:53N 29°47' W 095°05'1 0.3
2017-Sep-20 17:37N 29°47' W 095°05'1 3.6
2017-Sep-20 17:12N 29°46' W 095°05'1 5.5
2017-Sep-20 17:00N 29°45' W 095°04'1 2.3
2017-Sep-20 16:24N 29°44' W 095°03'0 0.0
2017-Sep-20 15:57N 29°44' W 095°03'0 0.0
2017-Sep-20 14:48N 29°44' W 095°03'0 0.0
2017-Sep-20 13:40N 29°44' W 095°03'0 0.0
2017-Sep-20 12:32N 29°44' W 095°03'0 0.1
2017-Sep-20 12:28N 29°44' W 095°03'0 0.0
2017-Sep-20 11:23N 29°44' W 095°03'0 0.0
2017-Sep-20 10:15N 29°44' W 095°03'0 0.0
2017-Sep-20 06:36N 29°44' W 095°03'0 0.0
2017-Sep-20 06:20N 29°44' W 095°03'0 0.0
2017-Sep-19 21:12N 29°44' W 095°03'0 0.5
2017-Sep-19 20:59N 29°44' W 095°03'2 3.4
2017-Sep-19 20:30N 29°45' W 095°04'1 1.5
2017-Sep-19 19:55N 29°46' W 095°05'1 2.8
2017-Sep-19 19:30N 29°45' W 095°04'3 5.3
2017-Sep-19 18:55N 29°43' W 095°01'2 4.8
2017-Sep-19 18:31N 29°42' W 094°60'3 5.7
2017-Sep-19 18:00N 29°39' W 094°58'3 6.0
2017-Sep-19 17:30N 29°36' W 094°57'3 6.0
2017-Sep-19 17:01N 29°34' W 094°55'3 6.1
2017-Sep-19 16:30N 29°31' W 094°53'68 4.5
2017-Sep-19 01:19N 30°02' W 093°44'2 5.4
2017-Sep-19 00:59N 30°03' W 093°42'2 4.6
2017-Sep-19 00:30N 30°04' W 093°40'3 5.0
2017-Sep-19 00:00N 30°04' W 093°37'2 4.8
2017-Sep-18 23:30N 30°04' W 093°34'2 4.9
2017-Sep-18 23:01N 30°04' W 093°31'2 4.7
2017-Sep-18 22:31N 30°04' W 093°28'2 4.7
2017-Sep-18 22:01N 30°04' W 093°26'2 4.7
2017-Sep-18 21:31N 30°04' W 093°23'2 4.2
2017-Sep-18 21:01N 30°04' W 093°21'1 2.3
2017-Sep-18 20:31N 30°05' W 093°20'2 5.0
2017-Sep-18 20:01N 30°08' W 093°20'1 1.2
2017-Sep-18 19:31N 30°08' W 093°20'0 0.6
2017-Sep-18 19:01N 30°08' W 093°19'0 0.0
2017-Sep-18 18:31N 30°08' W 093°19'0 0.0
2017-Sep-18 18:01N 30°08' W 093°19'0 0.0
2017-Sep-18 17:31N 30°08' W 093°19'0 0.0
2017-Sep-18 17:01N 30°08' W 093°19'0 0.0
2017-Sep-18 16:31N 30°08' W 093°19'0 0.0
2017-Sep-18 16:01N 30°08' W 093°19'0 0.0
2017-Sep-18 15:31N 30°08' W 093°19'0 0.0
2017-Sep-18 15:00N 30°08' W 093°19'0 0.0
2017-Sep-18 14:31N 30°08' W 093°19'0 0.0
2017-Sep-18 14:01N 30°08' W 093°19'0 0.0
2017-Sep-18 13:30N 30°08' W 093°19'0 0.0
2017-Sep-18 13:01N 30°08' W 093°19'0 0.0
2017-Sep-18 12:30N 30°08' W 093°19'0 0.0
2017-Sep-18 12:01N 30°08' W 093°19'0 0.0
2017-Sep-18 11:31N 30°08' W 093°19'0 0.0
2017-Sep-18 11:00N 30°08' W 093°19'0 0.0
2017-Sep-18 10:31N 30°08' W 093°19'0 0.0
2017-Sep-18 10:01N 30°08' W 093°19'0 0.0
2017-Sep-18 09:31N 30°08' W 093°19'0 0.0
2017-Sep-18 09:01N 30°08' W 093°19'0 0.0
2017-Sep-18 08:31N 30°08' W 093°19'0 0.0
2017-Sep-18 08:01N 30°08' W 093°19'0 0.0
2017-Sep-18 07:31N 30°08' W 093°19'0 0.0
2017-Sep-18 07:00N 30°08' W 093°19'0 0.0
2017-Sep-18 06:30N 30°08' W 093°19'0 0.0
2017-Sep-18 06:01N 30°08' W 093°19'0 0.0
2017-Sep-18 05:31N 30°08' W 093°19'0 0.0
2017-Sep-18 05:01N 30°08' W 093°19'0 0.0
2017-Sep-18 04:30N 30°08' W 093°19'0 0.0
2017-Sep-18 04:01N 30°08' W 093°19'0 0.0
2017-Sep-18 03:31N 30°08' W 093°19'0 0.0
2017-Sep-18 03:00N 30°08' W 093°19'0 0.0
2017-Sep-18 02:30N 30°08' W 093°19'0 0.0
2017-Sep-18 02:00N 30°08' W 093°19'0 0.0
2017-Sep-18 01:31N 30°08' W 093°19'0 0.0
2017-Sep-18 01:01N 30°08' W 093°19'0 0.0
2017-Sep-18 00:31N 30°08' W 093°19'0 0.0
2017-Sep-18 00:01N 30°08' W 093°19'0 0.5
2017-Sep-17 23:31N 30°08' W 093°20'1 1.1
2017-Sep-17 23:01N 30°08' W 093°20'3 6.4
2017-Sep-17 22:31N 30°05' W 093°20'0 0.2
2017-Sep-17 22:01N 30°04' W 093°20'0 0.0
2017-Sep-17 21:31N 30°04' W 093°20'0 0.0
2017-Sep-17 21:01N 30°04' W 093°20'0 0.0
2017-Sep-17 20:31N 30°04' W 093°20'0 0.0
2017-Sep-17 20:01N 30°04' W 093°20'0 0.0
2017-Sep-17 19:31N 30°04' W 093°20'0 0.0
2017-Sep-17 19:01N 30°04' W 093°20'0 0.0
2017-Sep-17 18:31N 30°04' W 093°20'0 0.0
2017-Sep-17 18:00N 30°04' W 093°20'0 0.0
2017-Sep-17 17:31N 30°04' W 093°20'0 0.0
2017-Sep-17 17:00N 30°04' W 093°20'0 0.0
2017-Sep-17 16:31N 30°04' W 093°20'0 0.0
2017-Sep-17 16:01N 30°04' W 093°20'0 0.0
2017-Sep-17 15:31N 30°04' W 093°20'0 0.0
2017-Sep-17 15:01N 30°04' W 093°20'0 0.0
2017-Sep-17 14:31N 30°04' W 093°20'0 0.0
2017-Sep-17 14:00N 30°04' W 093°20'0 0.0
2017-Sep-17 13:30N 30°04' W 093°20'0 0.0
2017-Sep-17 13:01N 30°04' W 093°20'0 0.0
2017-Sep-17 12:31N 30°04' W 093°20'0 0.0
2017-Sep-17 12:01N 30°04' W 093°20'0 0.0
2017-Sep-17 11:31N 30°04' W 093°20'0 0.0
2017-Sep-17 11:00N 30°04' W 093°20'0 0.0
2017-Sep-17 10:31N 30°04' W 093°20'0 0.0
2017-Sep-17 10:01N 30°04' W 093°20'0 0.0
2017-Sep-17 09:30N 30°04' W 093°20'0 0.0
2017-Sep-17 09:01N 30°04' W 093°20'0 0.0
2017-Sep-17 08:31N 30°04' W 093°20'0 0.0
2017-Sep-17 08:01N 30°04' W 093°20'0 0.0
2017-Sep-17 07:31N 30°04' W 093°20'0 0.0
2017-Sep-17 07:01N 30°04' W 093°20'0 0.0
2017-Sep-17 06:31N 30°04' W 093°20'0 0.0
2017-Sep-17 06:01N 30°04' W 093°20'0 0.0
2017-Sep-17 05:31N 30°04' W 093°20'0 0.0
2017-Sep-17 04:56N 30°04' W 093°20'0 0.0
2017-Sep-17 04:31N 30°04' W 093°20'0 0.0
2017-Sep-17 04:00N 30°04' W 093°20'0 0.0
2017-Sep-17 03:31N 30°04' W 093°20'0 0.0
2017-Sep-17 03:00N 30°04' W 093°20'0 0.0
2017-Sep-17 02:31N 30°04' W 093°20'0 0.0
2017-Sep-17 02:01N 30°04' W 093°20'0 0.0
2017-Sep-17 01:31N 30°04' W 093°20'0 0.0
2017-Sep-17 01:01N 30°04' W 093°20'0 0.0
2017-Sep-17 00:30N 30°04' W 093°20'0 0.0
2017-Sep-17 00:00N 30°04' W 093°20'0 0.0
2017-Sep-16 23:31N 30°04' W 093°20'0 0.0
2017-Sep-16 23:01N 30°04' W 093°20'0 0.0
2017-Sep-16 22:31N 30°04' W 093°20'0 0.0
2017-Sep-16 22:01N 30°04' W 093°20'0 0.0
2017-Sep-16 21:31N 30°04' W 093°20'0 0.0
2017-Sep-16 21:00N 30°04' W 093°20'0 0.0
2017-Sep-16 20:31N 30°04' W 093°20'0 0.0
2017-Sep-16 20:00N 30°04' W 093°20'0 0.0
2017-Sep-16 19:30N 30°04' W 093°20'0 0.0
2017-Sep-16 19:01N 30°04' W 093°20'0 0.0
2017-Sep-16 18:30N 30°04' W 093°20'0 0.0
2017-Sep-16 18:01N 30°04' W 093°20'0 0.0
2017-Sep-16 17:31N 30°04' W 093°20'0 0.0
2017-Sep-16 17:01N 30°04' W 093°20'0 0.0
2017-Sep-16 16:31N 30°04' W 093°20'0 0.0
2017-Sep-16 16:01N 30°04' W 093°20'0 0.0
2017-Sep-16 15:30N 30°04' W 093°20'0 0.0
2017-Sep-16 15:00N 30°04' W 093°20'0 0.0
2017-Sep-16 14:31N 30°04' W 093°20'0 0.0
2017-Sep-16 14:01N 30°04' W 093°20'0 0.0
2017-Sep-16 13:31N 30°04' W 093°20'0 0.0
2017-Sep-16 13:01N 30°04' W 093°20'0 0.0
2017-Sep-16 12:30N 30°04' W 093°20'0 0.0
2017-Sep-16 12:01N 30°04' W 093°20'0 0.0
2017-Sep-16 11:31N 30°04' W 093°20'0 0.0
2017-Sep-16 11:01N 30°04' W 093°20'0 0.0
2017-Sep-16 10:31N 30°04' W 093°20'0 0.0
2017-Sep-16 10:00N 30°04' W 093°20'0 0.0
2017-Sep-16 09:31N 30°04' W 093°20'0 0.0
2017-Sep-16 09:01N 30°04' W 093°20'0 0.0
2017-Sep-16 08:31N 30°04' W 093°20'0 0.0
2017-Sep-16 08:00N 30°04' W 093°20'0 0.0
2017-Sep-16 07:31N 30°04' W 093°20'0 0.0
2017-Sep-16 07:01N 30°04' W 093°20'0 0.0
2017-Sep-16 06:31N 30°04' W 093°20'0 0.0
2017-Sep-16 06:01N 30°04' W 093°20'0 0.0
2017-Sep-16 05:31N 30°04' W 093°20'0 0.0
2017-Sep-16 05:01N 30°04' W 093°20'0 0.1
2017-Sep-16 04:31N 30°04' W 093°20'0 0.0
2017-Sep-16 04:01N 30°04' W 093°20'0 0.0
2017-Sep-16 03:31N 30°04' W 093°20'0 0.0
2017-Sep-16 03:01N 30°04' W 093°20'0 0.0
2017-Sep-16 02:30N 30°04' W 093°20'0 0.0
2017-Sep-16 02:00N 30°04' W 093°20'0 0.0
2017-Sep-16 01:28N 30°04' W 093°20'0 0.0
2017-Sep-16 01:01N 30°04' W 093°20'0 0.0
2017-Sep-16 00:30N 30°04' W 093°20'0 0.0
2017-Sep-16 00:01N 30°04' W 093°20'0 0.0
2017-Sep-15 23:31N 30°04' W 093°20'0 0.0
2017-Sep-15 23:00N 30°04' W 093°20'0 0.0
2017-Sep-15 22:31N 30°04' W 093°20'0 0.0
2017-Sep-15 22:01N 30°04' W 093°20'0 0.0
2017-Sep-15 21:31N 30°04' W 093°20'0 0.0
2017-Sep-15 21:01N 30°04' W 093°20'0 0.0
2017-Sep-15 20:31N 30°04' W 093°20'0 0.0
2017-Sep-15 20:00N 30°04' W 093°20'0 0.0
2017-Sep-15 19:31N 30°04' W 093°20'0 0.0
2017-Sep-15 19:01N 30°04' W 093°20'0 0.0
2017-Sep-15 18:31N 30°04' W 093°20'0 0.0
2017-Sep-15 18:01N 30°04' W 093°20'0 0.0
2017-Sep-15 17:31N 30°04' W 093°20'0 0.0
2017-Sep-15 17:01N 30°04' W 093°20'0 0.0
2017-Sep-15 16:31N 30°04' W 093°20'0 0.0
2017-Sep-15 16:01N 30°04' W 093°20'0 0.0
2017-Sep-15 15:31N 30°04' W 093°20'0 0.0
2017-Sep-15 15:00N 30°04' W 093°20'0 0.0
2017-Sep-15 14:31N 30°04' W 093°20'0 0.0
2017-Sep-15 14:01N 30°04' W 093°20'0 0.0
2017-Sep-15 13:31N 30°04' W 093°20'0 0.0
2017-Sep-15 13:00N 30°04' W 093°20'0 0.0
2017-Sep-15 12:31N 30°04' W 093°20'0 0.0
2017-Sep-15 12:01N 30°04' W 093°20'0 0.0
2017-Sep-15 11:31N 30°04' W 093°20'0 0.0
2017-Sep-15 11:00N 30°04' W 093°20'0 0.0
2017-Sep-15 10:31N 30°04' W 093°20'0 0.0
2017-Sep-15 10:01N 30°04' W 093°20'0 0.0
2017-Sep-15 09:31N 30°04' W 093°20'0 0.0
2017-Sep-15 09:01N 30°04' W 093°20'0 0.0
2017-Sep-15 08:31N 30°04' W 093°20'0 0.0
2017-Sep-15 08:01N 30°04' W 093°20'0 0.0
2017-Sep-15 07:30N 30°04' W 093°20'0 0.0
2017-Sep-15 07:00N 30°04' W 093°20'0 0.0
2017-Sep-15 06:31N 30°04' W 093°20'0 0.0
2017-Sep-15 06:00N 30°04' W 093°20'0 0.0
2017-Sep-15 05:31N 30°04' W 093°20'0 0.0
2017-Sep-15 05:01N 30°04' W 093°20'0 0.0
2017-Sep-15 04:31N 30°04' W 093°20'0 0.0
2017-Sep-15 04:01N 30°04' W 093°20'0 0.0
2017-Sep-15 03:31N 30°04' W 093°20'0 0.0
2017-Sep-15 03:00N 30°04' W 093°20'0 0.0
2017-Sep-15 02:30N 30°04' W 093°20'0 0.0
2017-Sep-15 02:01N 30°04' W 093°20'0 0.0
2017-Sep-15 01:30N 30°04' W 093°20'0 0.0
2017-Sep-15 01:01N 30°04' W 093°20'1 2.1
2017-Sep-15 00:31N 30°04' W 093°21'2 3.6
2017-Sep-15 00:00N 30°04' W 093°23'3 6.4
2017-Sep-14 23:30N 30°04' W 093°27'4 7.0
2017-Sep-14 23:01N 30°04' W 093°31'4 7.0
2017-Sep-14 22:30N 30°04' W 093°35'3 6.5
2017-Sep-14 22:00N 30°04' W 093°39'72 5.1
2017-Sep-14 07:59N 29°30' W 094°52'3 5.6
2017-Sep-14 07:30N 29°32' W 094°54'3 6.1
2017-Sep-14 07:00N 29°35' W 094°56'3 6.3
2017-Sep-14 06:31N 29°38' W 094°58'3 6.4
2017-Sep-14 06:01N 29°41' W 094°59'3 6.0
2017-Sep-14 05:31N 29°43' W 095°01'2 4.1
2017-Sep-14 05:00N 29°44' W 095°03'0 0.0
2017-Sep-14 04:30N 29°44' W 095°03'0 0.0
2017-Sep-14 03:58N 29°44' W 095°03'0 0.0
2017-Sep-14 03:30N 29°44' W 095°03'0 0.0
2017-Sep-14 03:00N 29°44' W 095°03'0 0.0
2017-Sep-13 04:44N 29°44' W 095°03'0 2.0
2017-Sep-13 04:30N 29°44' W 095°03'3 3.4
2017-Sep-13 03:43N 29°47' W 095°05'1 0.0
2017-Sep-12 13:51N 29°47' W 095°05'0 0.0
2017-Sep-12 13:29N 29°47' W 095°05'0 0.0
2017-Sep-12 13:00N 29°47' W 095°05'0 0.3
2017-Sep-12 12:30N 29°47' W 095°05'0 0.0
2017-Sep-12 01:31N 29°47' W 095°05'0 1.1
2017-Sep-12 01:24N 29°47' W 095°05'0 0.0
2017-Sep-11 21:26N 29°47' W 095°05'0 0.3
2017-Sep-11 20:58N 29°47' W 095°05'  

Dump ship's entire track history